RYR35MU LIRP-LICR
Flight info
| Callsign | RYR35MU |
|---|---|
| Flight time | N/A |
| Altitude | 19000 |
| Route | DOCME M729 GILIO/N0448F370 DCT MEDAL/N0449F390 DCT ELVIN DCT RIFFI DCT PIGER/N0369F180 L869 PEROS |
| Aircraft | B738/M-SDE2E3FGHIRWXY/LB1 |
Departure
| Time | 2026-04-28 17:21 |
|---|---|
| Airport | Pisa International Airport (LIRP) |
Arrival
| Time | N/A |
|---|---|
| Airport | Reggio Calabria Airport (LICR) |
| Time | Latitude | Longitude | Altitude | Speed | Heading |
|---|---|---|---|---|---|
| 2026-04-28 16:52 | 43.69752 | 10.40031 | 13 ft | 0 kts | 8° |
| 2026-04-28 17:11 | 43.69747 | 10.40029 | 13 ft | 4 kts | 7° |
| 2026-04-28 17:11 | 43.69720 | 10.40027 | 13 ft | 4 kts | 355° |
| 2026-04-28 17:11 | 43.69695 | 10.40035 | 17 ft | 4 kts | 330° |
| 2026-04-28 17:11 | 43.69680 | 10.40056 | 13 ft | 2 kts | 279° |
| 2026-04-28 17:12 | 43.69679 | 10.40057 | 13 ft | 1 kts | 279° |
| 2026-04-28 17:17 | 43.69679 | 10.40056 | 13 ft | 1 kts | 275° |
| 2026-04-28 17:17 | 43.69665 | 10.40051 | 16 ft | 5 kts | 180° |
| 2026-04-28 17:17 | 43.69585 | 10.40065 | 14 ft | 18 kts | 172° |
| 2026-04-28 17:17 | 43.69428 | 10.40097 | 16 ft | 24 kts | 171° |
| 2026-04-28 17:18 | 43.69338 | 10.40186 | 15 ft | 1 kts | 125° |
| 2026-04-28 17:18 | 43.69300 | 10.40258 | 11 ft | 18 kts | 126° |
| 2026-04-28 17:18 | 43.69198 | 10.40274 | 10 ft | 0 kts | 216° |
| 2026-04-28 17:19 | 43.69174 | 10.40249 | 9 ft | 16 kts | 217° |
| 2026-04-28 17:19 | 43.68970 | 10.40037 | 9 ft | 19 kts | 215° |
| 2026-04-28 17:19 | 43.68959 | 10.40026 | 10 ft | 1 kts | 217° |
| 2026-04-28 17:19 | 43.68950 | 10.40017 | 9 ft | 2 kts | 217° |
| 2026-04-28 17:20 | 43.68950 | 10.40016 | 9 ft | 0 kts | 217° |
| 2026-04-28 17:20 | 43.68473 | 10.39526 | 12 ft | 126 kts | 216° |
| 2026-04-28 17:20 | 43.67619 | 10.38644 | 556 ft | 148 kts | 219° |
| 2026-04-28 17:21 | 43.66767 | 10.37856 | 1743 ft | 155 kts | 211° |
| 2026-04-28 17:21 | 43.65752 | 10.37119 | 2436 ft | 168 kts | 208° |
| 2026-04-28 17:21 | 43.64659 | 10.36419 | 3198 ft | 178 kts | 201° |
| 2026-04-28 17:22 | 43.62263 | 10.35178 | 4740 ft | 191 kts | 199° |
| 2026-04-28 17:22 | 43.61016 | 10.34526 | 5473 ft | 193 kts | 199° |
| 2026-04-28 17:22 | 43.59760 | 10.33860 | 6221 ft | 193 kts | 199° |
| 2026-04-28 17:23 | 43.57256 | 10.32516 | 7659 ft | 193 kts | 200° |
| 2026-04-28 17:23 | 43.56010 | 10.31840 | 8396 ft | 191 kts | 200° |
| 2026-04-28 17:23 | 43.54773 | 10.31166 | 9093 ft | 195 kts | 201° |
| 2026-04-28 17:23 | 43.53490 | 10.30464 | 9605 ft | 201 kts | 200° |
| 2026-04-28 17:24 | 43.52167 | 10.29739 | 10120 ft | 207 kts | 201° |
| 2026-04-28 17:24 | 43.51275 | 10.29249 | 10446 ft | 210 kts | 201° |
| 2026-04-28 17:24 | 43.49438 | 10.28238 | 11108 ft | 216 kts | 202° |
| 2026-04-28 17:24 | 43.48502 | 10.27722 | 11420 ft | 221 kts | 202° |
| 2026-04-28 17:25 | 43.47057 | 10.26925 | 11910 ft | 228 kts | 202° |
| 2026-04-28 17:25 | 43.43964 | 10.25218 | 12941 ft | 251 kts | 202° |
| 2026-04-28 17:25 | 43.42301 | 10.24300 | 13489 ft | 263 kts | 203° |
| 2026-04-28 17:26 | 43.40563 | 10.23341 | 14020 ft | 275 kts | 203° |
| 2026-04-28 17:26 | 43.38747 | 10.22339 | 14514 ft | 287 kts | 203° |
| 2026-04-28 17:26 | 43.36856 | 10.21297 | 15009 ft | 298 kts | 203° |
| 2026-04-28 17:26 | 43.34894 | 10.20216 | 15520 ft | 309 kts | 203° |
| 2026-04-28 17:27 | 43.32861 | 10.19097 | 16037 ft | 320 kts | 204° |
| 2026-04-28 17:27 | 43.30761 | 10.17942 | 16555 ft | 330 kts | 204° |
| 2026-04-28 17:27 | 43.28598 | 10.16752 | 17090 ft | 340 kts | 204° |
| 2026-04-28 17:27 | 43.26376 | 10.15532 | 17615 ft | 348 kts | 204° |
| 2026-04-28 17:28 | 43.24097 | 10.14282 | 18166 ft | 357 kts | 204° |
| 2026-04-28 17:28 | 43.19392 | 10.11703 | 19143 ft | 371 kts | 204° |
| 2026-04-28 17:28 | 43.16969 | 10.10391 | 19613 ft | 378 kts | 201° |
| 2026-04-28 17:29 | 43.14348 | 10.09769 | 20051 ft | 391 kts | 181° |
| 2026-04-28 17:29 | 43.11643 | 10.10427 | 20572 ft | 402 kts | 162° |
| 2026-04-28 17:29 | 43.09143 | 10.12125 | 21113 ft | 409 kts | 154° |
| 2026-04-28 17:30 | 43.04148 | 10.16014 | 22133 ft | 417 kts | 153° |
| 2026-04-28 17:30 | 42.99071 | 10.19957 | 23200 ft | 422 kts | 154° |
| 2026-04-28 17:30 | 42.96498 | 10.21927 | 23726 ft | 425 kts | 154° |
| 2026-04-28 17:31 | 42.93912 | 10.23893 | 24172 ft | 427 kts | 154° |
| 2026-04-28 17:31 | 42.88702 | 10.27836 | 25113 ft | 430 kts | 154° |
| 2026-04-28 17:32 | 42.83460 | 10.31794 | 26078 ft | 431 kts | 154° |
| 2026-04-28 17:32 | 42.80834 | 10.33776 | 26574 ft | 432 kts | 154° |
| 2026-04-28 17:32 | 42.78206 | 10.35756 | 27078 ft | 432 kts | 154° |
| 2026-04-28 17:32 | 42.75578 | 10.37735 | 27573 ft | 432 kts | 153° |
| 2026-04-28 17:33 | 42.73048 | 10.39953 | 28079 ft | 435 kts | 144° |
| 2026-04-28 17:33 | 42.70807 | 10.42724 | 28612 ft | 436 kts | 135° |
| 2026-04-28 17:33 | 42.68747 | 10.45756 | 29169 ft | 435 kts | 134° |
| 2026-04-28 17:33 | 42.67402 | 10.47772 | 29528 ft | 435 kts | 134° |
| 2026-04-28 17:34 | 42.64689 | 10.51837 | 30246 ft | 433 kts | 134° |
| 2026-04-28 17:34 | 42.62663 | 10.54850 | 30722 ft | 431 kts | 134° |
| 2026-04-28 17:34 | 42.60640 | 10.57833 | 31202 ft | 429 kts | 135° |
| 2026-04-28 17:34 | 42.58619 | 10.60794 | 31688 ft | 426 kts | 135° |
| 2026-04-28 17:35 | 42.56601 | 10.63740 | 32195 ft | 424 kts | 135° |
| 2026-04-28 17:35 | 42.54598 | 10.66657 | 32695 ft | 421 kts | 135° |
| 2026-04-28 17:35 | 42.52613 | 10.69544 | 33209 ft | 417 kts | 135° |
| 2026-04-28 17:35 | 42.50641 | 10.72409 | 33725 ft | 414 kts | 135° |
| 2026-04-28 17:36 | 42.48712 | 10.75211 | 34213 ft | 409 kts | 135° |
| 2026-04-28 17:36 | 42.46779 | 10.78016 | 34677 ft | 404 kts | 135° |
| 2026-04-28 17:36 | 42.44871 | 10.80782 | 35149 ft | 399 kts | 135° |
| 2026-04-28 17:36 | 42.42991 | 10.83505 | 35612 ft | 393 kts | 135° |
| 2026-04-28 17:37 | 42.41136 | 10.86190 | 36090 ft | 387 kts | 135° |
| 2026-04-28 17:37 | 42.39314 | 10.88826 | 36548 ft | 381 kts | 135° |
| 2026-04-28 17:37 | 42.35606 | 10.94170 | 36380 ft | 401 kts | 135° |
| 2026-04-28 17:38 | 42.33667 | 10.96963 | 36262 ft | 412 kts | 135° |
| 2026-04-28 17:38 | 42.31690 | 10.99809 | 36329 ft | 418 kts | 135° |
| 2026-04-28 17:38 | 42.27656 | 11.05615 | 36451 ft | 430 kts | 135° |
| 2026-04-28 17:39 | 42.23511 | 11.11571 | 36585 ft | 440 kts | 135° |
| 2026-04-28 17:39 | 42.19291 | 11.17623 | 36980 ft | 443 kts | 135° |
| 2026-04-28 17:40 | 42.17173 | 11.20656 | 37078 ft | 447 kts | 135° |
| 2026-04-28 17:40 | 42.12896 | 11.26770 | 37044 ft | 447 kts | 135° |
| 2026-04-28 17:41 | 42.08672 | 11.32798 | 37048 ft | 439 kts | 135° |
| 2026-04-28 17:41 | 42.04471 | 11.38776 | 37046 ft | 440 kts | 135° |
| 2026-04-28 17:42 | 42.00288 | 11.44715 | 37055 ft | 440 kts | 135° |
| 2026-04-28 17:42 | 41.90067 | 11.59195 | 37079 ft | 441 kts | 135° |
| 2026-04-28 17:43 | 41.24535 | 12.50311 | 37153 ft | 448 kts | 136° |
| 2026-04-28 17:43 | 40.88031 | 12.95159 | 36983 ft | 446 kts | 144° |
| 2026-04-28 17:43 | 40.84880 | 12.98183 | 37037 ft | 441 kts | 152° |
| 2026-04-28 17:43 | 40.51758 | 13.26504 | 36102 ft | 474 kts | 145° |
| 2026-04-28 17:44 | 40.13434 | 13.72751 | 36369 ft | 453 kts | 136° |
| 2026-04-28 17:44 | 39.78010 | 14.15921 | 36788 ft | 424 kts | 146° |
| 2026-04-28 17:44 | 39.39950 | 14.51404 | 37309 ft | 422 kts | 148° |
| 2026-04-28 17:44 | 39.10466 | 14.81614 | 37818 ft | 440 kts | 142° |
| 2026-04-28 17:45 | 39.08205 | 14.84353 | 37571 ft | 454 kts | 139° |
| 2026-04-28 17:45 | 39.05916 | 14.87257 | 36907 ft | 470 kts | 139° |
| 2026-04-28 17:45 | 39.03529 | 14.90164 | 36244 ft | 472 kts | 141° |
| 2026-04-28 17:45 | 39.01085 | 14.92965 | 35706 ft | 470 kts | 142° |
| 2026-04-28 17:46 | 38.98588 | 14.95682 | 35113 ft | 471 kts | 143° |
| 2026-04-28 17:46 | 38.96053 | 14.98347 | 34538 ft | 471 kts | 144° |
| 2026-04-28 17:46 | 38.93497 | 15.00987 | 33980 ft | 470 kts | 144° |
| 2026-04-28 17:46 | 38.90941 | 15.03610 | 33337 ft | 470 kts | 144° |
| 2026-04-28 17:47 | 38.88389 | 15.06228 | 32709 ft | 470 kts | 144° |
| 2026-04-28 17:47 | 38.85840 | 15.08848 | 32102 ft | 469 kts | 144° |
| 2026-04-28 17:47 | 38.83297 | 15.11465 | 31444 ft | 469 kts | 144° |
| 2026-04-28 17:47 | 38.81611 | 15.13201 | 31071 ft | 468 kts | 144° |
| 2026-04-28 17:48 | 38.78226 | 15.16686 | 29800 ft | 477 kts | 144° |
| 2026-04-28 17:48 | 38.75628 | 15.19357 | 28881 ft | 480 kts | 144° |
| 2026-04-28 17:48 | 38.73015 | 15.22044 | 27905 ft | 482 kts | 144° |
| 2026-04-28 17:48 | 38.70392 | 15.24740 | 26978 ft | 483 kts | 144° |
| 2026-04-28 17:49 | 38.67771 | 15.27430 | 26084 ft | 483 kts | 143° |
| 2026-04-28 17:49 | 38.65155 | 15.30114 | 25201 ft | 482 kts | 143° |
| 2026-04-28 17:49 | 38.62544 | 15.32787 | 24370 ft | 479 kts | 143° |
| 2026-04-28 17:49 | 38.59976 | 15.35498 | 23510 ft | 478 kts | 138° |
| 2026-04-28 17:50 | 38.57959 | 15.38879 | 22330 ft | 483 kts | 117° |
| 2026-04-28 17:50 | 38.56936 | 15.42888 | 22071 ft | 466 kts | 101° |
| 2026-04-28 17:50 | 38.56622 | 15.46905 | 22036 ft | 445 kts | 89° |
| 2026-04-28 17:50 | 38.57032 | 15.50690 | 21881 ft | 428 kts | 74° |
| 2026-04-28 17:51 | 38.57857 | 15.54298 | 21883 ft | 409 kts | 72° |
| 2026-04-28 17:51 | 38.58649 | 15.57727 | 21626 ft | 395 kts | 73° |
| 2026-04-28 17:51 | 38.59399 | 15.61121 | 20513 ft | 400 kts | 74° |
| 2026-04-28 17:51 | 38.60119 | 15.64493 | 19664 ft | 397 kts | 75° |
| 2026-04-28 17:52 | 38.60524 | 15.67975 | 18647 ft | 399 kts | 92° |
| 2026-04-28 17:52 | 38.60031 | 15.71423 | 17740 ft | 393 kts | 111° |
| 2026-04-28 17:52 | 38.56755 | 15.76841 | 15368 ft | 394 kts | 148° |
| 2026-04-28 17:53 | 38.54264 | 15.78253 | 14201 ft | 393 kts | 167° |
| 2026-04-28 17:53 | 38.51554 | 15.78577 | 12934 ft | 391 kts | 186° |
| 2026-04-28 17:53 | 38.48930 | 15.77792 | 11684 ft | 387 kts | 204° |
| 2026-04-28 17:53 | 38.46618 | 15.76104 | 10459 ft | 382 kts | 221° |
| 2026-04-28 17:54 | 38.44725 | 15.73757 | 9294 ft | 377 kts | 227° |
| 2026-04-28 17:54 | 38.42923 | 15.71345 | 8005 ft | 375 kts | 227° |
| 2026-04-28 17:54 | 38.41134 | 15.68946 | 6908 ft | 371 kts | 227° |
| 2026-04-28 17:54 | 38.39402 | 15.66646 | 6578 ft | 345 kts | 227° |
| 2026-04-28 17:55 | 38.37800 | 15.64536 | 6413 ft | 319 kts | 226° |
| 2026-04-28 17:55 | 38.36304 | 15.62578 | 6273 ft | 297 kts | 227° |